Overview Statistics Trail Chart Weather Telemetry Raw packets
 

This is the latest recevied weather packets stored in our database for station/object HA9OZD-18. If no packets are shown the sender has not sent any weather packets the latest 10 day(s).

<< 2 3 4 5 6 7 8 >>
Time Temp. Humidity Pressure Rain* Wind** Luminosity Snow
1788392751 15.56° C 45% 1019.3 hPa - - - -
1788392719 15.56° C - - - - - -
1788392719 15.56° C 67% 1019.3 hPa - - - -
1788392709 15.56° C 45% 1019.3 hPa - - - -
1788390976 15.56° C 45% 1019.5 hPa - - - -
1788389109 15.56° C 45% 1019.5 hPa - - - -
1788385509 15.56° C 45% 1019.6 hPa - - - -
1788381908 15.56° C 45% 1019.5 hPa - - - -
1788378308 16.11° C 45% 1019.4 hPa - - - -
1788374710 16.11° C 44% 1019.6 hPa - - - -
1788371117 17.22° C 41% 1019.3 hPa - - - -
1788371110 17.22° C 41% 1019.3 hPa - - - -
1788367509 17.78° C 39% 1019.3 hPa - - - -
1788363909 18.89° C 36% 1019.5 hPa - - - -
1788360309 20.56° C 31% 1019.5 hPa - - - -
1788356709 20.56° C 32% 1019.9 hPa - - - -
1788353110 25.56° C 22% 1020.1 hPa - - - -
1788349508 21.11° C 32% 1020.6 hPa - - - -
1788345908 20.56° C 33% 1020.9 hPa - - - -
1788342308 20° C 36% 1021.2 hPa - - - -
1788338707 17.78° C 44% 1021.2 hPa - - - -
1788335107 17.22° C 52% 1020.9 hPa - - - -
1788331507 15.56° C 59% 1020.5 hPa - - - -
1788327966 13.89° C 66% 1020.5 hPa - - - -
1788327906 13.89° C 66% 1020.5 hPa - - - -

* Rain since midnight (hover to see other rain measurements)
** Current wind speed in m/s (hover to see current wind gust speed)